Time;durP1;ratioP1;P1;durP2;ratioP2;P2;SDS_P1;SDS_P2;PMS_P1;PMS_P2;Temp;Humidity;BMP_temperature;BMP_pressure;BME280_temperature;BME280_humidity;BME280_pressure;Samples;Min_cycle;Max_cycle;Signal;HPM_P1;HPM_P2
2021/04/30 04:43:03;;;;;;;21.52;15.28;;;;;;;9.20;79.53;100075.88;1750979;79;22760;-36
2021/04/30 04:45:32;;;;;;;27.25;16.90;;;;;;;9.28;79.75;100079.40;1722739;82;21200;-36
2021/04/30 04:48:01;;;;;;;30.12;14.83;;;;;;;9.43;79.78;100075.92;1717037;82;21135;-42
2021/04/30 04:50:29;;;;;;;24.82;15.25;;;;;;;9.57;79.52;100075.08;1705909;82;21203;-36
2021/04/30 04:52:57;;;;;;;21.97;14.83;;;;;;;9.71;79.13;100078.12;1705276;83;21194;-42
2021/04/30 04:55:25;;;;;;;23.85;14.00;;;;;;;9.82;78.86;100081.17;1705489;82;21209;-35
2021/04/30 04:57:53;;;;;;;16.85;12.82;;;;;;;9.96;78.68;100081.14;1701378;82;21155;-36
2021/04/30 05:00:21;;;;;;;18.62;13.20;;;;;;;10.08;78.48;100071.98;1702140;82;21155;-42
2021/04/30 05:02:49;;;;;;;16.05;12.30;;;;;;;10.21;78.01;100072.85;1713625;82;21725;-36
2021/04/30 05:05:17;;;;;;;24.20;13.25;;;;;;;10.36;77.91;100078.50;1699058;83;21162;-36
2021/04/30 05:07:45;;;;;;;18.90;14.05;;;;;;;10.50;77.78;100083.27;1705553;83;21178;-37
2021/04/30 05:10:14;;;;;;;21.42;13.10;;;;;;;10.65;76.76;100081.89;1704310;82;21312;-43
2021/04/30 05:12:42;;;;;;;17.67;12.18;;;;;;;10.80;76.90;100081.42;1704010;82;21180;-43
2021/04/30 05:15:12;;;;;;;21.77;14.90;;;;;;;10.97;76.52;100081.34;1700838;82;21186;-43
2021/04/30 05:17:43;;;;;;;18.75;13.30;;;;;;;11.13;75.10;100077.33;1673801;83;21581;-38
2021/04/30 05:20:14;;;;;;;29.70;15.45;;;;;;;11.28;73.01;100078.09;1701727;82;21177;-37
2021/04/30 05:22:42;;;;;;;20.92;14.73;;;;;;;11.38;72.54;100075.41;1701949;82;21690;-44
2021/04/30 05:25:13;;;;;;;21.57;14.58;;;;;;;11.48;72.07;100067.06;1676383;83;21278;-35
2021/04/30 05:27:42;;;;;;;20.70;14.07;;;;;;;11.61;72.04;100066.52;1702161;82;21333;-42
2021/04/30 05:30:13;;;;;;;29.27;13.03;;;;;;;11.73;71.17;100063.36;1704424;82;21143;-36
2021/04/30 05:32:41;;;;;;;22.70;13.08;;;;;;;11.85;70.54;100065.48;1703086;82;21343;-44
2021/04/30 05:35:12;;;;;;;17.90;12.35;;;;;;;11.96;70.48;100065.81;1697817;82;21158;-43
2021/04/30 05:37:41;;;;;;;16.25;12.03;;;;;;;12.09;69.96;100059.13;1701397;82;21189;-42
2021/04/30 05:40:11;;;;;;;20.45;11.70;;;;;;;12.17;69.05;100058.60;1705765;82;21423;-42
2021/04/30 05:42:39;;;;;;;23.00;13.08;;;;;;;12.25;69.50;100058.09;1708057;81;21187;-42
2021/04/30 05:45:11;;;;;;;19.48;11.60;;;;;;;12.36;69.64;100050.13;1711066;81;21325;-42
2021/04/30 05:47:40;;;;;;;16.70;11.95;;;;;;;12.47;68.35;100056.11;1712633;81;21655;-37
2021/04/30 05:50:09;;;;;;;19.85;12.43;;;;;;;12.57;68.80;100050.30;1716501;81;21165;-37
2021/04/30 05:52:37;;;;;;;17.37;12.90;;;;;;;12.70;69.05;100053.22;1710634;81;21119;-50
2021/04/30 05:55:06;;;;;;;20.50;12.35;;;;;;;12.81;67.45;100053.92;1709872;81;21318;-43
2021/04/30 05:57:34;;;;;;;19.50;12.73;;;;;;;12.90;67.33;100052.50;1709841;81;21146;-44
2021/04/30 06:00:03;;;;;;;24.82;11.20;;;;;;;12.96;66.90;100047.16;1713386;81;21725;-43
2021/04/30 06:02:33;;;;;;;20.00;12.07;;;;;;;13.05;67.53;100047.05;1708937;81;21358;-44
2021/04/30 06:05:02;;;;;;;14.78;10.98;;;;;;;13.16;67.26;100043.38;1707441;81;21166;-37
2021/04/30 06:07:30;;;;;;;19.10;11.78;;;;;;;13.28;67.58;100044.58;1710102;81;21971;-42
2021/04/30 06:09:58;;;;;;;20.35;12.07;;;;;;;13.36;66.73;100041.38;1713344;81;21191;-43
2021/04/30 06:12:27;;;;;;;19.07;12.00;;;;;;;13.42;65.87;100036.47;1717494;81;21158;-37
2021/04/30 06:14:55;;;;;;;21.15;11.63;;;;;;;13.47;66.67;100038.58;1682980;83;21355;-43
2021/04/30 06:17:26;;;;;;;18.12;11.40;;;;;;;13.55;65.94;100034.06;1654654;84;21896;-42
2021/04/30 06:19:55;;;;;;;22.67;10.68;;;;;;;13.65;65.81;100041.36;1699342;82;21217;-35
2021/04/30 06:22:24;;;;;;;20.97;10.95;;;;;;;13.77;65.78;100038.52;1693164;82;21344;-35
2021/04/30 06:24:57;;;;;;;;;;;;;;;13.92;66.31;100037.40;1642691;84;21759;-36
2021/04/30 06:27:27;;;;;;;15.00;9.13;;;;;;;14.07;64.92;100037.10;1676021;83;20524;-36
2021/04/30 06:29:57;;;;;;;18.57;9.73;;;;;;;14.19;65.50;100038.19;1679049;83;21220;-36
2021/04/30 06:32:27;;;;;;;14.63;8.28;;;;;;;14.35;64.59;100043.58;1680095;83;21567;-36
2021/04/30 06:34:57;;;;;;;12.70;7.03;;;;;;;14.51;63.17;100049.45;1633922;84;21339;-42
2021/04/30 06:37:26;;;;;;;9.43;6.70;;;;;;;14.63;62.62;100042.62;1677302;83;21358;-36
2021/04/30 06:39:56;;;;;;;11.28;7.45;;;;;;;14.75;61.99;100044.59;1678649;83;21204;-35
2021/04/30 06:42:25;;;;;;;11.80;6.45;;;;;;;14.83;61.58;100035.61;1658516;85;21175;-42
2021/04/30 06:44:56;;;;;;;15.53;7.90;;;;;;;14.94;61.31;100043.73;1659481;84;21821;-36
2021/04/30 06:47:34;;;;;;;13.60;8.17;;;;;;;15.02;60.73;100048.41;1675620;83;21748;-44
2021/04/30 06:50:19;;;;;;;11.85;8.18;;;;;;;15.07;59.97;100039.47;1610007;84;21205;-39
2021/04/30 06:52:51;;;;;;;13.78;8.08;;;;;;;15.14;61.11;100036.27;1642974;85;21201;-36
2021/04/30 06:55:19;;;;;;;16.42;10.08;;;;;;;15.24;60.38;100034.27;1650068;85;21721;-37
2021/04/30 06:57:47;;;;;;;14.98;8.38;;;;;;;15.34;60.49;100027.44;1680001;84;21476;-43
2021/04/30 07:00:17;;;;;;;13.60;8.40;;;;;;;15.43;60.14;100033.82;1675801;84;21787;-42
2021/04/30 07:02:45;;;;;;;12.13;7.95;;;;;;;15.52;59.83;100027.90;1672937;84;21278;-36
2021/04/30 07:05:15;;;;;;;13.05;7.92;;;;;;;15.58;59.78;100026.42;1672858;84;21188;-36
2021/04/30 07:07:43;;;;;;;18.07;8.20;;;;;;;15.65;59.68;100020.13;1676751;84;21249;-37
2021/04/30 07:10:12;;;;;;;11.12;7.62;;;;;;;15.74;59.50;100017.27;1672148;84;21420;-36
2021/04/30 07:12:40;;;;;;;8.73;6.28;;;;;;;15.84;58.22;100016.13;1678149;84;21195;-42
2021/04/30 07:15:09;;;;;;;10.20;6.25;;;;;;;15.90;57.76;100015.97;1673524;84;21174;-43
2021/04/30 07:17:37;;;;;;;9.68;6.97;;;;;;;15.99;58.41;100004.30;1679379;83;21627;-36
2021/04/30 07:20:08;;;;;;;16.60;7.75;;;;;;;16.10;59.21;100010.15;1655692;85;21441;-37
2021/04/30 07:22:36;;;;;;;10.23;6.30;;;;;;;16.20;58.37;100001.08;1650401;84;21194;-36
